createdAt,value
2022-08-04T00:00:17.365Z,8.52
2022-08-04T00:03:05.374Z,8.95
2022-08-04T00:06:09.646Z,9.05
2022-08-04T00:08:53.135Z,8.95
2022-08-04T00:11:30.572Z,9.07
2022-08-04T00:14:04.950Z,9.68
2022-08-04T00:16:39.185Z,9.50
2022-08-04T00:19:12.236Z,9.48
2022-08-04T00:21:46.312Z,9.38
2022-08-04T00:24:17.263Z,9.85
2022-08-04T00:26:46.816Z,8.80
2022-08-04T00:29:16.410Z,8.27
2022-08-04T00:31:56.364Z,8.43
2022-08-04T00:34:28.660Z,9.60
2022-08-04T00:36:59.081Z,9.23
2022-08-04T00:39:28.204Z,9.77
2022-08-04T00:42:24.881Z,9.40
2022-08-04T00:44:56.233Z,9.75
2022-08-04T00:47:56.151Z,10.77
2022-08-04T00:50:43.710Z,10.45
2022-08-04T00:53:32.155Z,10.05
2022-08-04T00:56:24.410Z,11.27
2022-08-04T00:59:19.235Z,11.38
2022-08-04T01:02:22.471Z,10.77
2022-08-04T01:04:56.830Z,11.70
2022-08-04T01:08:01.814Z,11.25
2022-08-04T01:10:59.278Z,11.93
2022-08-04T01:13:47.801Z,11.50
2022-08-04T01:16:18.997Z,11.63
2022-08-04T01:18:59.865Z,11.40
2022-08-04T01:21:30.945Z,12.13
2022-08-04T01:24:16.908Z,13.15
2022-08-04T01:27:06.471Z,12.48
2022-08-04T01:29:48.572Z,12.18
2022-08-04T01:32:26.527Z,12.60
2022-08-04T01:35:22.183Z,12.45
2022-08-04T01:38:18.322Z,13.63
2022-08-04T01:40:56.701Z,13.18
2022-08-04T01:43:27.929Z,14.13
2022-08-04T01:46:02.231Z,14.48
2022-08-04T01:48:31.311Z,13.70
2022-08-04T01:51:06.115Z,13.98
2022-08-04T01:53:40.789Z,15.38
2022-08-04T01:56:11.115Z,15.65
2022-08-04T01:58:41.069Z,14.98
2022-08-04T02:01:12.713Z,15.60
2022-08-04T02:04:19.593Z,15.40
2022-08-04T02:07:01.826Z,15.55
2022-08-04T02:09:55.369Z,14.63
2022-08-04T02:12:34.586Z,15.98
2022-08-04T02:15:21.815Z,15.43
2022-08-04T02:18:15.529Z,16.75
2022-08-04T02:20:47.626Z,15.90
2022-08-04T02:23:27.322Z,16.98
2022-08-04T02:26:03.335Z,16.42
2022-08-04T02:28:32.301Z,15.85
2022-08-04T02:31:16.234Z,16.17
2022-08-04T02:33:47.485Z,17.00
2022-08-04T02:36:28.175Z,17.10
2022-08-04T02:39:04.471Z,16.85
2022-08-04T02:44:09.575Z,16.05
2022-08-04T02:49:10.553Z,16.48
2022-08-04T02:51:44.193Z,16.90
2022-08-04T02:54:16.114Z,15.98
2022-08-04T02:57:04.411Z,16.85
2022-08-04T03:00:09.720Z,17.70
2022-08-04T03:02:59.088Z,17.35
2022-08-04T03:05:57.642Z,17.75
2022-08-04T03:09:05.124Z,17.48
2022-08-04T03:11:48.813Z,16.95
2022-08-04T03:14:53.850Z,15.88
2022-08-04T03:17:53.599Z,17.05
2022-08-04T03:20:39.029Z,17.08
2022-08-04T03:23:34.746Z,17.00
2022-08-04T03:26:18.095Z,17.20
2022-08-04T03:29:23.596Z,16.98
2022-08-04T03:32:42.613Z,17.95
2022-08-04T03:35:37.899Z,17.45
2022-08-04T03:38:24.506Z,17.60
2022-08-04T03:40:59.104Z,17.25
2022-08-04T03:43:59.035Z,17.77
2022-08-04T03:46:44.616Z,18.50
2022-08-04T03:49:38.265Z,18.20
2022-08-04T03:53:10.420Z,18.38
2022-08-04T03:56:06.904Z,18.60
2022-08-04T03:58:49.019Z,18.65
2022-08-04T04:01:26.274Z,18.48
